Time;durP1;ratioP1;P1;durP2;ratioP2;P2;SDS_P1;SDS_P2;PMS_P1;PMS_P2;Temp;Humidity;BMP_temperature;BMP_pressure;BME280_temperature;BME280_humidity;BME280_pressure;Samples;Min_cycle;Max_cycle;Signal;HPM_P1;HPM_P2
2022/11/04 00:01:52;;;;;;;10.15;9.10;;;;;;;9.88;100.00;100107.13;5105904;28;20034;-85
2022/11/04 00:04:20;;;;;;;12.13;10.30;;;;;;;9.89;100.00;100112.31;5105463;28;20475;-85
2022/11/04 00:06:46;;;;;;;12.70;10.30;;;;;;;9.89;100.00;100111.44;5110524;28;20038;-85
2022/11/04 00:09:18;;;;;;;13.93;10.10;;;;;;;9.88;100.00;100109.78;5119744;28;20028;-84
2022/11/04 00:14:29;;;;;;;10.38;9.27;;;;;;;9.88;100.00;100115.09;5106091;28;20054;-85
2022/11/04 00:28:41;;;;;;;9.80;8.80;;;;;;;9.77;100.00;100106.19;5118775;28;20043;-85
2022/11/04 00:30:56;;;;;;;9.85;8.20;;;;;;;9.72;100.00;100137.59;5124531;28;20042;-85
2022/11/04 00:33:24;;;;;;;9.18;7.72;;;;;;;9.65;100.00;100141.72;5092742;28;20028;-83
2022/11/04 00:35:52;;;;;;;8.77;7.63;;;;;;;9.63;100.00;100136.56;5096860;28;20035;-85
2022/11/04 00:38:17;;;;;;;8.48;7.55;;;;;;;9.60;100.00;100133.31;5088718;28;20024;-85
2022/11/04 00:40:43;;;;;;;8.90;8.00;;;;;;;9.56;100.00;100132.75;5122955;28;20107;-85
2022/11/04 00:43:08;;;;;;;11.63;8.25;;;;;;;9.52;100.00;100135.78;5102106;28;20035;-84
2022/11/04 00:45:34;;;;;;;8.82;7.95;;;;;;;9.52;100.00;100141.91;5095227;28;20110;-84
2022/11/04 00:48:00;;;;;;;9.52;8.32;;;;;;;9.50;100.00;100143.03;5090458;28;20020;-85
2022/11/04 00:50:25;;;;;;;8.75;7.60;;;;;;;9.44;100.00;100142.56;5084043;28;20117;-85
2022/11/04 00:52:50;;;;;;;8.07;7.35;;;;;;;9.50;100.00;100154.44;5078707;28;20040;-85
2022/11/04 00:55:16;;;;;;;8.90;8.00;;;;;;;9.45;100.00;100156.66;5096579;28;20092;-85
2022/11/04 00:57:41;;;;;;;9.32;7.72;;;;;;;9.44;100.00;100163.78;5097724;28;20020;-85
2022/11/04 01:00:07;;;;;;;8.85;7.97;;;;;;;9.36;100.00;100162.69;5093399;28;20040;-85
2022/11/04 01:02:33;;;;;;;8.90;7.47;;;;;;;9.37;100.00;100169.69;5111997;28;20067;-85
2022/11/04 01:04:58;;;;;;;9.98;7.80;;;;;;;9.31;100.00;100171.06;5103478;28;20035;-86
2022/11/04 01:07:24;;;;;;;10.98;8.32;;;;;;;9.28;100.00;100167.81;5091724;28;20032;-85
2022/11/04 01:09:49;;;;;;;11.80;8.45;;;;;;;9.26;100.00;100170.59;5128479;28;20031;-84
2022/11/04 01:12:15;;;;;;;11.85;7.97;;;;;;;9.24;100.00;100167.19;5077183;28;20495;-84
2022/11/04 01:14:41;;;;;;;11.52;8.30;;;;;;;9.23;100.00;100178.78;5105615;28;20023;-84
2022/11/04 01:17:07;;;;;;;14.38;8.90;;;;;;;9.16;100.00;100178.44;5089023;28;20024;-84
2022/11/04 01:19:32;;;;;;;17.15;9.48;;;;;;;9.10;100.00;100172.81;5069121;28;20068;-84
2022/11/04 01:21:57;;;;;;;13.38;9.70;;;;;;;9.13;100.00;100191.09;5066274;28;20025;-84
2022/11/04 01:24:25;;;;;;;10.75;9.25;;;;;;;9.12;100.00;100195.53;5096292;28;20040;-84
2022/11/04 01:26:50;;;;;;;13.65;9.65;;;;;;;9.08;100.00;100187.00;5087734;28;20028;-85
2022/11/04 01:29:15;;;;;;;17.60;9.40;;;;;;;9.07;100.00;100187.13;5084639;28;20021;-85
2022/11/04 01:31:43;;;;;;;15.02;9.52;;;;;;;9.10;100.00;100191.34;5083957;28;20032;-85
2022/11/04 01:34:08;;;;;;;14.65;9.55;;;;;;;9.06;100.00;100183.63;5088190;28;20110;-84
2022/11/04 01:36:34;;;;;;;12.45;8.90;;;;;;;9.03;100.00;100175.94;5105123;28;20027;-83
2022/11/04 01:38:59;;;;;;;12.70;9.00;;;;;;;8.99;100.00;100165.72;5088931;28;20023;-84
2022/11/04 01:41:33;;;;;;;14.00;8.05;;;;;;;9.02;100.00;100186.66;5120252;28;20038;-85
2022/11/04 01:44:36;;;;;;;12.45;8.07;;;;;;;9.02;100.00;100192.78;5087333;28;20059;-85
2022/11/04 01:47:03;;;;;;;13.10;7.82;;;;;;;8.97;100.00;100186.19;5094786;28;20504;-85
2022/11/04 01:49:36;;;;;;;9.82;8.20;;;;;;;8.95;100.00;100190.78;5116070;22;20237;-81
2022/11/04 01:52:24;;;;;;;10.73;7.22;;;;;;;8.89;100.00;100185.00;5096159;28;20074;-81
2022/11/04 01:54:52;;;;;;;12.35;6.97;;;;;;;8.78;100.00;100176.25;5088147;28;20445;-81
2022/11/04 01:57:24;;;;;;;10.32;6.85;;;;;;;8.83;100.00;100187.31;5095537;28;20459;-81
2022/11/04 01:59:49;;;;;;;9.73;6.68;;;;;;;8.81;100.00;100189.22;5089000;28;20028;-81
2022/11/04 02:02:14;;;;;;;10.10;6.03;;;;;;;8.76;100.00;100184.31;5092379;28;20047;-81
2022/11/04 02:04:42;;;;;;;10.00;6.35;;;;;;;8.71;100.00;100191.78;5089158;28;20016;-81
2022/11/04 02:07:09;;;;;;;10.73;6.13;;;;;;;8.72;100.00;100189.97;5095633;28;20050;-81
2022/11/04 02:09:36;;;;;;;10.55;5.75;;;;;;;8.68;100.00;100187.53;5073343;28;20028;-81
2022/11/04 02:14:48;;;;;;;16.40;6.25;;;;;;;8.58;100.00;100183.94;5081840;28;20067;-81
2022/11/04 02:17:16;;;;;;;10.45;5.95;;;;;;;8.57;100.00;100194.66;5095050;28;20040;-81
2022/11/04 02:20:00;;;;;;;12.63;5.85;;;;;;;8.54;100.00;100185.13;5093003;28;20035;-81
2022/11/04 02:22:43;;;;;;;8.85;5.35;;;;;;;8.53;100.00;100191.41;5085825;28;20035;-81
2022/11/04 02:25:31;;;;;;;10.57;5.03;;;;;;;8.48;100.00;100193.56;5080995;28;20124;-81
2022/11/04 02:28:21;;;;;;;11.00;5.50;;;;;;;8.48;100.00;100198.88;5088290;28;20108;-81
2022/11/04 02:30:52;;;;;;;10.82;5.45;;;;;;;8.41;100.00;100197.63;5095100;28;20386;-82
2022/11/04 02:33:36;;;;;;;6.40;4.93;;;;;;;8.41;100.00;100208.19;5085429;28;20028;-82
2022/11/04 02:36:09;;;;;;;8.30;4.68;;;;;;;8.38;100.00;100211.13;5083646;28;20036;-82
2022/11/04 02:38:59;;;;;;;6.72;4.63;;;;;;;8.36;100.00;100210.38;5101774;28;20028;-82
2022/11/04 02:41:39;;;;;;;6.25;4.10;;;;;;;8.27;100.00;100202.16;5096086;28;20028;-82
2022/11/04 02:44:58;;;;;;;8.77;4.00;;;;;;;8.32;100.00;100215.88;5083280;28;20040;-82
2022/11/04 02:47:29;;;;;;;7.18;3.85;;;;;;;8.25;100.00;100209.41;5045864;28;20037;-82
2022/11/04 02:50:01;;;;;;;6.25;3.63;;;;;;;8.17;100.00;100203.84;5067922;28;20113;-82
2022/11/04 02:52:37;;;;;;;9.98;3.35;;;;;;;8.23;100.00;100216.63;5084987;28;20085;-82
2022/11/04 02:55:20;;;;;;;9.18;4.15;;;;;;;8.20;100.00;100213.38;5059378;28;20024;-82
2022/11/04 02:57:49;;;;;;;5.78;3.42;;;;;;;8.12;100.00;100204.19;5071586;28;20029;-82
2022/11/04 03:00:15;;;;;;;6.63;3.33;;;;;;;8.13;100.00;100208.53;5061740;28;20487;-82
2022/11/04 03:02:47;;;;;;;6.18;3.50;;;;;;;8.12;100.00;100206.00;5078927;28;20077;-82
2022/11/04 03:05:19;;;;;;;7.07;3.15;;;;;;;8.11;100.00;100209.59;5066734;28;20036;-82
2022/11/04 03:07:46;;;;;;;9.05;3.25;;;;;;;8.06;100.00;100203.81;5067656;28;20070;-82
2022/11/04 03:10:18;;;;;;;4.35;2.90;;;;;;;8.07;100.00;100208.16;5062134;28;20528;-82
2022/11/04 03:12:56;;;;;;;6.45;3.20;;;;;;;8.08;100.00;100215.97;5071015;28;20035;-82
2022/11/04 03:15:29;;;;;;;7.85;3.20;;;;;;;8.03;100.00;100212.00;5054861;28;20052;-82
2022/11/04 03:18:11;;;;;;;7.47;3.20;;;;;;;8.01;100.00;100214.78;5054305;28;20021;-82
2022/11/04 03:20:39;;;;;;;4.78;2.97;;;;;;;7.93;100.00;100215.34;5054643;28;20037;-82
2022/11/04 03:23:05;;;;;;;9.20;3.00;;;;;;;7.94;100.00;100216.19;5065954;28;20100;-82
2022/11/04 03:25:42;;;;;;;10.90;3.40;;;;;;;7.94;100.00;100218.81;5066859;28;20060;-82
2022/11/04 03:28:17;;;;;;;9.52;3.38;;;;;;;7.94;100.00;100218.81;5064000;28;20398;-81
2022/11/04 03:30:46;;;;;;;7.22;3.80;;;;;;;7.90;100.00;100223.50;5084780;28;20025;-82
2022/11/04 03:33:18;;;;;;;;;;;;;;;7.96;100.00;100223.06;5076348;28;20036;-82
2022/11/04 03:35:44;;;;;;;8.05;3.10;;;;;;;7.87;100.00;100225.53;5068591;28;20373;-82
2022/11/04 03:38:09;;;;;;;7.38;3.00;;;;;;;7.83;100.00;100224.06;5073440;28;20024;-82
2022/11/04 03:40:35;;;;;;;9.90;3.25;;;;;;;7.81;100.00;100223.34;5072465;28;20115;-81
2022/11/04 03:43:08;;;;;;;4.75;3.25;;;;;;;7.84;100.00;100231.88;5065538;28;20033;-83
2022/11/04 03:45:34;;;;;;;11.93;4.53;;;;;;;7.82;100.00;100233.81;5059670;28;20025;-82
2022/11/04 03:48:00;;;;;;;6.63;2.60;;;;;;;7.79;100.00;100231.38;5059628;28;20442;-82
2022/11/04 03:50:27;;;;;;;7.88;2.78;;;;;;;7.73;100.00;100224.78;5073164;28;20025;-82
2022/11/04 03:52:53;;;;;;;9.25;2.90;;;;;;;7.75;100.00;100235.25;5073083;28;20035;-82
2022/11/04 03:55:19;;;;;;;9.43;3.10;;;;;;;7.71;100.00;100220.53;5073106;28;20037;-82
2022/11/04 03:58:05;;;;;;;5.25;2.63;;;;;;;7.67;100.00;100217.28;5073033;28;20494;-83
2022/11/04 04:00:37;;;;;;;7.88;3.10;;;;;;;7.44;100.00;100194.38;5075773;28;20032;-82
2022/11/04 04:03:10;;;;;;;6.50;2.70;;;;;;;7.62;100.00;100221.25;5074035;28;20025;-82
2022/11/04 04:05:39;;;;;;;5.47;2.85;;;;;;;7.66;100.00;100228.84;5051271;28;20428;-83
2022/11/04 04:08:33;;;;;;;5.78;2.80;;;;;;;7.66;100.00;100231.50;5072636;28;20025;-82
2022/11/04 04:11:30;;;;;;;7.60;2.75;;;;;;;7.67;100.00;100227.03;5078282;28;20028;-82
2022/11/04 04:14:06;;;;;;;8.52;3.22;;;;;;;7.63;100.00;100234.34;5072340;28;20025;-82
2022/11/04 04:16:41;;;;;;;4.80;2.58;;;;;;;7.57;100.00;100227.69;5054920;28;20032;-82
2022/11/04 04:19:17;;;;;;;8.13;2.85;;;;;;;7.55;100.00;100223.50;5055160;28;20047;-82
2022/11/04 04:21:53;;;;;;;9.25;2.40;;;;;;;7.57;100.00;100235.63;5072460;28;20174;-83
2022/11/04 04:29:53;;;;;;;9.23;2.55;;;;;;;7.50;100.00;100255.53;5072544;28;20399;-82
2022/11/04 04:32:21;;;;;;;6.38;2.42;;;;;;;7.40;100.00;100238.69;5072558;28;20021;-82
2022/11/04 04:34:46;;;;;;;5.97;2.50;;;;;;;7.47;99.81;100261.06;5072748;28;20476;-82
2022/11/04 04:37:21;;;;;;;8.73;3.20;;;;;;;7.43;100.00;100250.81;5072070;28;20040;-82
2022/11/04 04:45:36;;;;;;;8.80;3.08;;;;;;;7.40;100.00;100260.66;5072799;28;20112;-82
2022/11/04 04:48:02;;;;;;;9.32;2.47;;;;;;;7.35;99.83;100259.31;5071321;28;20090;-82
2022/11/04 04:50:33;;;;;;;5.53;2.47;;;;;;;7.30;99.68;100261.44;5086037;28;20474;-82
2022/11/04 04:53:00;;;;;;;7.68;2.88;;;;;;;7.32;99.88;100270.94;5071890;28;20495;-82
2022/11/04 04:55:25;;;;;;;13.38;2.95;;;;;;;7.29;99.51;100260.56;5070480;28;20025;-82
2022/11/04 04:57:50;;;;;;;7.30;2.67;;;;;;;7.26;99.96;100267.88;5063166;28;20099;-82
2022/11/04 05:00:18;;;;;;;7.15;2.58;;;;;;;7.17;100.00;100264.13;5077340;28;20040;-82
2022/11/04 05:02:44;;;;;;;6.18;2.83;;;;;;;7.23;99.92;100276.91;5087222;28;20074;-82
2022/11/04 05:05:12;;;;;;;6.57;2.78;;;;;;;7.21;99.74;100282.28;5075868;28;20414;-82
2022/11/04 05:07:37;;;;;;;6.20;2.85;;;;;;;7.18;99.44;100279.84;5068736;28;20025;-82
2022/11/04 05:10:03;;;;;;;9.23;2.72;;;;;;;7.15;99.10;100282.72;5071052;28;20028;-82
2022/11/04 05:13:24;;;;;;;9.57;2.88;;;;;;;7.15;99.33;100280.06;5084365;28;20039;-82
2022/11/04 05:15:13;;;;;;;6.88;2.70;;;;;;;7.15;99.90;100289.81;5089755;28;20037;-82
2022/11/04 05:17:39;;;;;;;11.50;4.32;;;;;;;7.13;99.93;100289.06;5076656;28;20054;-83
2022/11/04 05:20:04;;;;;;;9.95;4.10;;;;;;;7.11;100.00;100291.81;5080300;28;20024;-83
2022/11/04 05:22:30;;;;;;;14.40;5.03;;;;;;;7.12;100.00;100293.50;5079042;28;20532;-82
2022/11/04 05:24:55;;;;;;;14.35;5.47;;;;;;;7.10;100.00;100290.13;5076470;28;20568;-82
2022/11/04 05:27:20;;;;;;;12.18;4.65;;;;;;;7.11;100.00;100299.75;5057742;28;20036;-82
2022/11/04 05:29:45;;;;;;;13.88;4.97;;;;;;;7.11;100.00;100302.38;5058026;28;20028;-82
2022/11/04 05:32:11;;;;;;;13.10;6.20;;;;;;;7.09;100.00;100296.34;5075347;28;20034;-82
2022/11/04 05:34:36;;;;;;;12.50;5.60;;;;;;;7.13;100.00;100308.41;5078802;28;20050;-82
2022/11/04 05:37:01;;;;;;;12.00;5.72;;;;;;;7.12;100.00;100317.25;5078209;28;20032;-82
2022/11/04 05:39:26;;;;;;;16.90;5.88;;;;;;;7.14;100.00;100319.78;5074911;28;20032;-82
2022/11/04 05:41:52;;;;;;;13.68;5.75;;;;;;;7.11;100.00;100304.16;5075528;28;20036;-82
2022/11/04 05:44:17;;;;;;;15.00;6.07;;;;;;;7.14;100.00;100314.50;5063960;28;20033;-82
2022/11/04 05:46:42;;;;;;;14.98;5.57;;;;;;;7.15;100.00;100319.69;5075197;28;20021;-82
2022/11/04 05:49:08;;;;;;;15.25;5.60;;;;;;;7.14;100.00;100320.63;5075465;28;20076;-82
2022/11/04 05:51:33;;;;;;;9.90;6.18;;;;;;;7.17;100.00;100319.59;5072187;28;20434;-82
2022/11/04 05:53:59;;;;;;;12.15;5.93;;;;;;;7.18;100.00;100322.13;5075131;28;20044;-82
2022/11/04 05:56:24;;;;;;;14.30;5.93;;;;;;;7.15;100.00;100322.31;5074903;28;20032;-82
2022/11/04 05:58:50;;;;;;;10.45;5.20;;;;;;;7.14;100.00;100330.34;5075167;28;20471;-82
2022/11/04 06:01:27;;;;;;;11.85;5.65;;;;;;;7.18;100.00;100323.91;5069379;28;20037;-82
2022/11/04 06:03:53;;;;;;;11.43;5.47;;;;;;;7.14;100.00;100336.47;5074906;28;20020;-82
2022/11/04 06:06:20;;;;;;;13.23;5.53;;;;;;;7.15;100.00;100340.81;5066473;28;20135;-82
2022/11/04 06:08:46;;;;;;;9.45;5.40;;;;;;;7.14;100.00;100338.28;5072955;28;20529;-82
2022/11/04 06:11:11;;;;;;;14.52;6.15;;;;;;;7.14;100.00;100333.00;5074888;28;20119;-82
2022/11/04 06:13:36;;;;;;;12.35;5.65;;;;;;;7.14;100.00;100344.41;5075239;28;20024;-82
2022/11/04 06:16:02;;;;;;;7.78;4.90;;;;;;;7.12;100.00;100345.47;5075128;28;20020;-82
2022/11/04 06:18:29;;;;;;;10.77;5.05;;;;;;;7.11;100.00;100344.63;5074269;28;20083;-82
2022/11/04 06:21:24;;;;;;;10.40;4.90;;;;;;;7.15;100.00;100340.81;5074926;28;20481;-82
2022/11/04 06:23:50;;;;;;;9.40;5.43;;;;;;;7.04;100.00;100332.78;5063462;28;20025;-82
2022/11/04 06:26:15;;;;;;;9.82;5.63;;;;;;;7.07;100.00;100344.94;5074079;28;20062;-82
2022/11/04 06:28:41;;;;;;;9.75;4.63;;;;;;;7.07;100.00;100343.16;5063514;28;20029;-82
2022/11/04 06:31:08;;;;;;;9.40;5.00;;;;;;;7.07;100.00;100352.88;5074381;28;20032;-82
2022/11/04 06:33:34;;;;;;;10.85;5.57;;;;;;;7.04;100.00;100351.28;5074171;28;20036;-82
2022/11/04 06:36:01;;;;;;;8.95;4.93;;;;;;;7.03;100.00;100362.81;5074072;28;20024;-82
2022/11/04 06:38:30;;;;;;;7.85;4.78;;;;;;;7.01;100.00;100360.28;5075291;28;20036;-82
2022/11/04 06:40:56;;;;;;;7.20;4.57;;;;;;;7.01;100.00;100372.59;5074823;28;20025;-82
2022/11/04 06:43:21;;;;;;;11.45;4.95;;;;;;;6.92;100.00;100362.69;5074642;28;20029;-82
2022/11/04 06:45:56;;;;;;;8.65;4.82;;;;;;;6.90;100.00;100369.88;5074456;28;20020;-82
2022/11/04 06:48:21;;;;;;;10.50;5.50;;;;;;;6.90;100.00;100368.09;5074039;28;20649;-82
2022/11/04 06:50:47;;;;;;;10.48;4.80;;;;;;;6.91;100.00;100369.78;5074955;28;20090;-82
2022/11/04 06:53:12;;;;;;;10.27;4.50;;;;;;;6.88;100.00;100364.72;5074946;28;20028;-82
2022/11/04 06:55:38;;;;;;;14.40;4.72;;;;;;;6.86;100.00;100377.16;5074198;28;20025;-82
2022/11/04 06:58:03;;;;;;;10.32;5.25;;;;;;;6.87;100.00;100383.28;5074312;28;20094;-82
2022/11/04 07:00:28;;;;;;;12.13;4.80;;;;;;;6.84;100.00;100385.19;5074314;28;20471;-84
2022/11/04 07:02:54;;;;;;;8.15;4.85;;;;;;;6.84;100.00;100382.56;5074613;28;20037;-81
2022/11/04 07:05:19;;;;;;;12.63;5.25;;;;;;;6.84;100.00;100390.47;5075439;28;20035;-81
2022/11/04 07:07:44;;;;;;;10.98;4.53;;;;;;;6.87;100.00;100399.13;5068938;28;20016;-81
2022/11/04 07:10:10;;;;;;;10.65;4.95;;;;;;;6.89;100.00;100398.06;5054568;28;20049;-82
2022/11/04 07:12:36;;;;;;;11.60;4.55;;;;;;;6.92;100.00;100407.59;5055100;28;20025;-82
2022/11/04 07:15:03;;;;;;;9.38;4.72;;;;;;;6.94;100.00;100403.03;5066430;28;20123;-82
2022/11/04 07:17:29;;;;;;;13.25;4.90;;;;;;;6.96;100.00;100409.03;5073662;28;20067;-82
2022/11/04 07:19:54;;;;;;;10.55;4.53;;;;;;;6.97;100.00;100405.47;5072409;28;20072;-82
2022/11/04 07:22:19;;;;;;;8.98;4.95;;;;;;;7.01;100.00;100407.81;5073509;28;20107;-83
2022/11/04 07:24:45;;;;;;;8.60;4.03;;;;;;;7.01;100.00;100404.28;5075611;28;20531;-83
2022/11/04 07:27:10;;;;;;;6.95;4.35;;;;;;;7.03;100.00;100405.91;5089529;28;20036;-82
2022/11/04 07:29:36;;;;;;;8.20;4.47;;;;;;;7.07;100.00;100405.69;5078576;28;20363;-83
2022/11/04 07:32:01;;;;;;;10.05;4.82;;;;;;;7.12;100.00;100409.69;5084716;28;20043;-83
2022/11/04 07:34:27;;;;;;;9.77;4.63;;;;;;;7.17;100.00;100419.94;5076390;28;20024;-83
2022/11/04 07:36:52;;;;;;;9.05;4.68;;;;;;;7.19;100.00;100412.75;5053673;28;20025;-82
2022/11/04 07:39:18;;;;;;;6.40;4.35;;;;;;;7.23;100.00;100416.88;5053561;28;20043;-82
2022/11/04 07:41:43;;;;;;;12.55;4.75;;;;;;;7.28;100.00;100420.06;5070403;28;20042;-82
2022/11/04 07:44:12;;;;;;;10.90;4.75;;;;;;;7.21;100.00;100403.78;5078079;28;20475;-82
2022/11/04 07:46:38;;;;;;;11.95;5.22;;;;;;;7.40;100.00;100428.91;5079106;28;20047;-82
2022/11/04 07:49:04;;;;;;;12.55;5.25;;;;;;;7.41;100.00;100434.09;5072697;28;20545;-81
2022/11/04 07:51:33;;;;;;;9.20;5.32;;;;;;;7.41;100.00;100431.44;5055317;28;20053;-82
2022/11/04 07:53:59;;;;;;;12.18;5.57;;;;;;;7.48;100.00;100433.66;5073312;28;20045;-82
2022/11/04 07:56:26;;;;;;;11.88;4.90;;;;;;;7.49;100.00;100432.69;5073319;28;20033;-82
2022/11/04 07:58:51;;;;;;;14.20;5.07;;;;;;;7.54;100.00;100435.84;5072800;28;20028;-82
2022/11/04 08:01:22;;;;;;;15.15;6.00;;;;;;;7.57;100.00;100433.00;5074423;28;20078;-82
2022/11/04 08:03:48;;;;;;;13.77;5.90;;;;;;;7.63;100.00;100434.34;5081730;28;20074;-82
2022/11/04 08:06:16;;;;;;;13.13;5.60;;;;;;;7.69;100.00;100437.41;5072937;28;20029;-82
2022/11/04 08:08:43;;;;;;;14.57;5.70;;;;;;;7.77;100.00;100439.53;5058222;28;20598;-82
2022/11/04 08:11:14;;;;;;;12.88;5.68;;;;;;;7.82;100.00;100440.03;5070454;28;20473;-82
2022/11/04 08:13:40;;;;;;;13.75;5.22;;;;;;;7.90;100.00;100450.06;5082911;28;20050;-82
2022/11/04 08:16:12;;;;;;;13.20;5.22;;;;;;;7.96;100.00;100454.94;5086349;28;20040;-82
2022/11/04 08:18:38;;;;;;;12.00;5.88;;;;;;;8.04;100.00;100449.06;5059755;28;20032;-82
2022/11/04 08:21:04;;;;;;;9.32;5.43;;;;;;;8.11;100.00;100463.53;5078054;28;20112;-82
2022/11/04 08:23:31;;;;;;;11.55;5.45;;;;;;;8.19;100.00;100460.34;5087053;28;20459;-82
2022/11/04 08:25:57;;;;;;;11.48;5.60;;;;;;;8.22;100.00;100452.19;5086653;28;20510;-82
2022/11/04 08:28:23;;;;;;;19.27;6.20;;;;;;;8.31;100.00;100462.06;5084289;28;20032;-83
2022/11/04 08:31:10;;;;;;;16.05;5.55;;;;;;;8.36;100.00;100467.91;5089632;28;20463;-82
2022/11/04 08:33:36;;;;;;;12.82;5.85;;;;;;;8.41;100.00;100470.19;5081321;28;20102;-82
2022/11/04 08:36:08;;;;;;;16.77;5.75;;;;;;;8.44;100.00;100481.44;5067677;28;20049;-82
2022/11/04 08:38:34;;;;;;;12.43;6.05;;;;;;;8.50;100.00;100480.97;5064674;28;20025;-83
2022/11/04 08:41:02;;;;;;;13.75;5.97;;;;;;;8.56;100.00;100484.13;5086093;28;20044;-84
2022/11/04 08:43:28;;;;;;;15.05;6.50;;;;;;;8.60;100.00;100488.25;5069824;28;20109;-85
2022/11/04 08:45:54;;;;;;;15.45;6.57;;;;;;;8.65;100.00;100484.28;5068963;28;20104;-84
2022/11/04 08:48:20;;;;;;;15.77;6.78;;;;;;;8.74;100.00;100495.16;5045750;28;20048;-82
2022/11/04 08:50:53;;;;;;;17.42;6.47;;;;;;;8.78;100.00;100483.41;5060208;28;20041;-82
2022/11/04 08:53:18;;;;;;;15.52;6.88;;;;;;;8.85;100.00;100487.25;5070176;28;20039;-82
2022/11/04 08:55:44;;;;;;;17.38;6.50;;;;;;;8.93;100.00;100494.66;5074141;28;20017;-82
2022/11/04 08:58:10;;;;;;;16.70;6.55;;;;;;;8.98;100.00;100488.03;5065379;28;20031;-83
2022/11/04 09:00:35;;;;;;;16.13;6.57;;;;;;;9.04;100.00;100499.94;5074196;28;20024;-82
2022/11/04 09:03:01;;;;;;;15.23;5.97;;;;;;;9.07;100.00;100497.91;5076472;28;20082;-82
2022/11/04 09:05:27;;;;;;;17.00;6.57;;;;;;;9.10;100.00;100504.78;5058535;28;20039;-83
2022/11/04 09:07:53;;;;;;;10.00;5.75;;;;;;;9.15;100.00;100504.44;5080146;28;20043;-82
2022/11/04 09:10:18;;;;;;;14.45;6.40;;;;;;;9.21;100.00;100504.00;5075822;28;20029;-82
2022/11/04 09:12:44;;;;;;;14.90;5.78;;;;;;;9.27;100.00;100514.09;5066930;28;20025;-83
2022/11/04 09:15:09;;;;;;;17.27;6.43;;;;;;;9.32;100.00;100521.72;5075857;28;20025;-82
2022/11/04 09:17:35;;;;;;;15.43;5.65;;;;;;;9.32;100.00;100521.72;5076166;28;20031;-82
2022/11/04 09:20:01;;;;;;;14.60;6.03;;;;;;;9.37;100.00;100523.03;5075716;28;20031;-82
2022/11/04 09:22:26;;;;;;;12.40;6.00;;;;;;;9.39;100.00;100523.78;5064358;28;20155;-83
2022/11/04 09:24:52;;;;;;;14.23;6.32;;;;;;;9.44;100.00;100532.22;5056546;28;20025;-83
2022/11/04 09:27:17;;;;;;;15.23;6.07;;;;;;;9.48;100.00;100532.00;5091051;28;20024;-83
2022/11/04 09:29:43;;;;;;;15.75;5.93;;;;;;;9.53;100.00;100529.81;5058643;28;20103;-83
2022/11/04 09:32:08;;;;;;;13.07;5.20;;;;;;;9.57;100.00;100540.06;5075419;28;20024;-83
2022/11/04 09:34:35;;;;;;;21.42;5.53;;;;;;;9.60;100.00;100541.63;5084565;28;20474;-82
2022/11/04 09:37:00;;;;;;;12.32;5.80;;;;;;;9.66;100.00;100542.97;5097425;28;20050;-82
2022/11/04 09:39:25;;;;;;;15.60;5.72;;;;;;;9.72;100.00;100553.94;5081400;28;20618;-82
2022/11/04 09:42:16;;;;;;;13.55;5.78;;;;;;;9.77;100.00;100553.59;5086561;28;20017;-82
2022/11/04 09:44:57;;;;;;;15.32;5.97;;;;;;;9.81;100.00;100561.19;5089183;28;20025;-82
2022/11/04 09:47:24;;;;;;;13.82;5.85;;;;;;;9.81;100.00;100558.53;5080250;28;20035;-82
2022/11/04 09:49:54;;;;;;;13.77;5.88;;;;;;;9.87;100.00;100565.16;5080245;28;20105;-82
2022/11/04 09:52:36;;;;;;;11.68;5.75;;;;;;;9.95;100.00;100578.66;5093823;28;20022;-82
2022/11/04 09:55:19;;;;;;;13.07;6.47;;;;;;;9.99;100.00;100576.63;5082055;28;20028;-82
2022/11/04 09:57:47;;;;;;;13.25;5.50;;;;;;;10.00;99.80;100573.00;5077023;28;20029;-82
2022/11/04 10:00:16;;;;;;;16.13;6.22;;;;;;;10.04;99.92;100576.25;5080676;28;20107;-82
2022/11/04 10:02:46;;;;;;;15.15;5.65;;;;;;;10.08;99.99;100577.72;5067871;28;20386;-83
2022/11/04 10:05:53;;;;;;;11.85;5.63;;;;;;;10.18;100.00;100578.69;5095306;28;20024;-83
2022/11/04 10:08:51;;;;;;;14.45;5.70;;;;;;;10.27;100.00;100582.41;5060027;28;20036;-83
2022/11/04 10:11:37;;;;;;;14.45;6.28;;;;;;;10.31;99.65;100587.34;5083494;28;20036;-83
2022/11/04 10:14:11;;;;;;;13.00;5.45;;;;;;;10.40;99.93;100591.09;5069035;28;20089;-84
2022/11/04 10:16:43;;;;;;;16.58;5.90;;;;;;;10.46;100.00;100589.75;5075331;28;20036;-82
2022/11/04 10:19:27;;;;;;;15.65;5.80;;;;;;;10.56;100.00;100604.00;5075481;28;20028;-83
2022/11/04 10:22:03;;;;;;;14.80;5.88;;;;;;;10.59;99.21;100597.59;5078041;28;20119;-83
2022/11/04 10:24:46;;;;;;;11.82;5.40;;;;;;;10.66;98.83;100588.19;5076951;28;20054;-83
2022/11/04 10:27:24;;;;;;;13.38;5.95;;;;;;;10.70;98.22;100592.25;5095159;28;20032;-83
2022/11/04 10:30:15;;;;;;;17.15;6.78;;;;;;;10.71;97.86;100592.16;5094998;28;20036;-83
2022/11/04 10:32:59;;;;;;;13.43;6.60;;;;;;;10.86;98.28;100599.84;5074717;28;20047;-83
2022/11/04 10:35:41;;;;;;;14.48;6.10;;;;;;;10.92;97.00;100604.63;5074973;28;20020;-83
2022/11/04 10:38:19;;;;;;;19.65;6.60;;;;;;;10.94;96.31;100605.34;5074929;28;20052;-83
2022/11/04 10:40:49;;;;;;;15.48;7.18;;;;;;;11.01;96.33;100611.03;5074683;28;20017;-83
2022/11/04 10:43:22;;;;;;;14.40;7.00;;;;;;;11.05;96.71;100610.63;5074766;28;20028;-83
2022/11/04 10:46:10;;;;;;;14.48;6.75;;;;;;;11.12;96.16;100626.91;5056857;28;20455;-83
2022/11/04 10:48:42;;;;;;;17.60;7.15;;;;;;;11.22;96.30;100627.00;5074261;28;20132;-83
2022/11/04 10:51:07;;;;;;;12.98;7.25;;;;;;;11.26;95.17;100636.44;5054410;28;20155;-84
2022/11/04 10:53:33;;;;;;;16.00;7.65;;;;;;;11.34;94.98;100639.28;5067461;28;20025;-83
2022/11/04 10:55:58;;;;;;;18.75;8.52;;;;;;;11.39;93.40;100637.09;5074451;28;20028;-83
2022/11/04 10:58:29;;;;;;;15.43;8.60;;;;;;;11.37;91.29;100643.50;5084229;28;20031;-84
2022/11/04 11:00:56;;;;;;;15.82;8.82;;;;;;;11.45;93.12;100635.72;5075747;28;20036;-84
2022/11/04 11:03:31;;;;;;;18.65;9.32;;;;;;;11.54;91.71;100634.09;5096304;28;20055;-84
2022/11/04 11:06:23;;;;;;;17.92;9.23;;;;;;;11.65;93.05;100636.72;5075391;28;20064;-83
2022/11/04 11:08:50;;;;;;;14.38;8.15;;;;;;;11.72;92.18;100631.72;5045264;28;20053;-84
2022/11/04 11:11:34;;;;;;;19.42;9.00;;;;;;;11.82;90.86;100633.47;5073225;28;20433;-83
2022/11/04 11:13:59;;;;;;;16.48;9.13;;;;;;;11.90;91.49;100619.50;5076267;28;20048;-84
2022/11/04 11:16:27;;;;;;;19.40;8.95;;;;;;;11.92;93.17;100630.88;5077444;28;20024;-84
2022/11/04 11:19:12;;;;;;;15.68;9.05;;;;;;;11.95;91.37;100621.78;5078784;28;20029;-84
2022/11/04 11:21:55;;;;;;;16.48;8.40;;;;;;;12.02;90.57;100631.78;5072911;28;20110;-83
2022/11/04 11:24:23;;;;;;;18.92;7.93;;;;;;;12.07;89.12;100639.34;5073731;28;20127;-83
2022/11/04 11:26:53;;;;;;;16.17;7.97;;;;;;;12.12;88.02;100634.47;5075221;28;20028;-83
2022/11/04 11:29:23;;;;;;;16.05;7.43;;;;;;;12.13;86.77;100640.66;5080995;28;20044;-84
2022/11/04 11:31:50;;;;;;;15.48;8.02;;;;;;;12.20;86.91;100639.97;5074715;28;20030;-83
2022/11/04 11:34:37;;;;;;;18.73;7.95;;;;;;;12.24;87.28;100640.59;5073620;28;20047;-83
2022/11/04 11:37:04;;;;;;;18.95;7.80;;;;;;;12.16;85.77;100635.91;5086815;28;20149;-83
2022/11/04 11:39:32;;;;;;;15.60;7.97;;;;;;;12.24;85.26;100651.25;5074048;28;20033;-84
2022/11/04 11:41:57;;;;;;;26.38;7.55;;;;;;;12.21;84.48;100644.34;5073138;28;20078;-83
2022/11/04 11:44:35;;;;;;;16.27;7.77;;;;;;;12.27;84.87;100645.63;5073482;28;20441;-83
2022/11/04 11:47:06;;;;;;;15.73;6.90;;;;;;;12.32;85.08;100637.25;5061986;28;20602;-83
2022/11/04 11:49:34;;;;;;;18.23;8.25;;;;;;;12.37;84.68;100629.69;5079580;28;20131;-83
2022/11/04 11:52:29;;;;;;;14.20;7.38;;;;;;;12.46;85.74;100638.72;5093303;28;20133;-84
2022/11/04 11:55:03;;;;;;;18.17;7.45;;;;;;;12.46;84.52;100630.72;5073760;28;20036;-83
2022/11/04 11:57:38;;;;;;;11.82;7.18;;;;;;;12.53;85.77;100638.00;5060454;28;20032;-83
2022/11/04 12:00:09;;;;;;;15.70;6.93;;;;;;;12.50;85.13;100634.78;5067136;28;20124;-83
2022/11/04 12:02:44;;;;;;;15.32;7.10;;;;;;;12.55;84.28;100645.88;5067075;28;20025;-83